Ewa Beach, HI

11:36 PM HST on January 30, 2015 (GMT -1000)
Kaneohe Bay Marine Corps Air Facility | Change Station
CLOSE
Current Station
Airport
Location: Kaneohe MCBH,
Elevation: 23 ft
Nearby Weather Stations

Elev 23 ft 21.45 °N, 157.76 °W | Updated 39 minutes ago

Mostly Cloudy
Mostly Cloudy
70 °F
Feels Like 70 °F
N
4
Wind Variable Wind from Variable

Today
High -- | Low -- °F
--% Chance of Precip.
Yesterday
High -- | Low -- °F
Precip. -- in
7:10 AM 6:20 PM
Waxing Gibbous, 88% visible
Pressure 30.00 in
Visibility 7.0 miles
Clouds Mostly Cloudy 2500 ft
Dew Point 60 °F
Humidity 70%
Rainfall 0.00 in
Snow Depth Not available.
UV 0 out of 12
Pollen Not available.
Air Quality Not available.
Flu Activity Not available.
METAR PHNG 310857Z VRB03KT 7SM BKN025 21/15 A2999 RMK SLP158 T02100154 53010

More Conditions Fewer Conditions

Pressure 30.00 in
Visibility 7.0 miles
Clouds Mostly Cloudy 2500 ft
Dew Point 60 °F
Humidity 70%
Rainfall 0.00 in
Snow Depth Not available.
UV 0 out of 12
Pollen Not available.
Air Quality Not available.
Flu Activity Not available.
METAR PHNG 310857Z VRB03KT 7SM BKN025 21/15 A2999 RMK SLP158 T02100154 53010

More Conditions Fewer Conditions

10-Day Weather Forecast

Almanac

Astronomy

Jan. 30, 2015 Rise Set
Actual Time
Civil Twilight
Nautical Twilight
Astronomical Twilight
Moon
Length of Visible Light
Length of Day
Tomorrow will be .
, % of the Moon is Illuminated

Today's Extremes

State Highs State Lows

Community

WunderPhotos

Upload Photos

1,792,021 photos uploaded!

WunderBlogs® & News

Nearby

Air Quality

  Air Quality AQ Index Pollutant
Not available.

Snow Depth

Station Depth Elevation

Earthquake Activity

City Distance Mag. Time & Date
Minimum magnitude displayed is 2.5.

Coastal Water Temperatures

Place Temperature

Nearby Weather Stations